Time;durP1;ratioP1;P1;durP2;ratioP2;P2;SDS_P1;SDS_P2;PMS_P1;PMS_P2;Temp;Humidity;BMP_temperature;BMP_pressure;BME280_temperature;BME280_humidity;BME280_pressure;Samples;Min_cycle;Max_cycle;Signal;HPM_P1;HPM_P2
2022/04/28 00:02:19;;;;;;;9.13;1.75;;;8.40;99.90;;;;;;5104512;28;20063;-78
2022/04/28 00:04:45;;;;;;;6.30;1.63;;;8.40;99.90;;;;;;5103686;28;20085;-77
2022/04/28 00:07:11;;;;;;;6.07;2.03;;;8.40;99.90;;;;;;5069977;28;20039;-77
2022/04/28 00:09:37;;;;;;;10.80;2.22;;;8.50;99.90;;;;;;5104135;28;20399;-77
2022/04/28 00:12:03;;;;;;;10.45;1.75;;;8.40;99.90;;;;;;5103848;28;20044;-77
2022/04/28 00:14:30;;;;;;;7.35;1.75;;;8.40;99.90;;;;;;5053659;28;20487;-77
2022/04/28 00:16:56;;;;;;;7.43;2.00;;;8.40;99.90;;;;;;5102761;28;20067;-77
2022/04/28 00:19:22;;;;;;;8.52;2.47;;;8.40;99.90;;;;;;5103971;28;20048;-76
2022/04/28 00:21:47;;;;;;;7.47;2.00;;;7.50;99.90;;;;;;5086134;28;20067;-77
2022/04/28 00:24:13;;;;;;;13.60;2.58;;;8.40;99.90;;;;;;5086725;28;20086;-77
2022/04/28 00:26:39;;;;;;;8.32;1.92;;;8.30;99.90;;;;;;5088112;28;20047;-77
2022/04/28 00:29:04;;;;;;;8.32;1.85;;;8.30;99.90;;;;;;5086012;28;20036;-78
2022/04/28 00:31:30;;;;;;;9.63;2.10;;;8.70;99.90;;;;;;5088282;28;20044;-77
2022/04/28 00:33:56;;;;;;;6.28;1.85;;;8.30;99.90;;;;;;5085742;28;20051;-78
2022/04/28 00:36:22;;;;;;;6.03;2.20;;;8.30;99.90;;;;;;5087000;28;20356;-78
2022/04/28 00:38:47;;;;;;;3.97;1.88;;;8.30;99.90;;;;;;5085910;28;20710;-76
2022/04/28 00:41:13;;;;;;;7.72;1.65;;;8.70;99.90;;;;;;5103353;28;20036;-76
2022/04/28 00:43:50;;;;;;;4.80;1.50;;;8.30;99.90;;;;;;5103734;28;20096;-76
2022/04/28 00:46:15;;;;;;;8.30;1.77;;;8.30;99.90;;;;;;5085719;28;20407;-77
2022/04/28 00:51:26;;;;;;;7.78;1.50;;;8.40;99.90;;;;;;5085368;28;20054;-76
2022/04/28 00:53:52;;;;;;;7.57;1.60;;;8.30;99.90;;;;;;5053232;28;20407;-77
2022/04/28 00:56:18;;;;;;;5.95;1.52;;;8.40;99.90;;;;;;5102946;28;20065;-78
2022/04/28 00:58:46;;;;;;;8.55;1.60;;;8.40;99.90;;;;;;5069300;28;20040;-78
2022/04/28 01:01:12;;;;;;;10.05;2.00;;;8.40;99.90;;;;;;5070073;28;20083;-77
2022/04/28 01:03:37;;;;;;;9.75;2.22;;;8.30;99.90;;;;;;5102235;28;20541;-77
2022/04/28 01:06:03;;;;;;;9.52;2.33;;;8.30;99.90;;;;;;5086405;28;20052;-77
2022/04/28 01:08:29;;;;;;;13.20;2.13;;;8.30;99.90;;;;;;5086867;28;20210;-77
2022/04/28 01:10:56;;;;;;;6.22;1.55;;;8.30;99.90;;;;;;5053055;28;20495;-77
2022/04/28 01:13:22;;;;;;;4.45;1.65;;;8.30;99.90;;;;;;5086212;28;20084;-78
2022/04/28 01:15:49;;;;;;;11.45;2.08;;;8.30;99.90;;;;;;5102589;28;20055;-78
2022/04/28 01:18:16;;;;;;;6.75;2.00;;;8.30;99.90;;;;;;5069100;28;20048;-77
2022/04/28 01:20:43;;;;;;;5.15;1.80;;;8.30;99.90;;;;;;5084746;28;20040;-77
2022/04/28 01:23:09;;;;;;;9.02;2.47;;;8.30;99.90;;;;;;5103008;28;20097;-77
2022/04/28 01:25:35;;;;;;;5.47;1.65;;;8.30;99.90;;;;;;5067840;28;20491;-76
2022/04/28 01:28:01;;;;;;;11.20;2.33;;;8.30;99.90;;;;;;5052943;28;20044;-77
2022/04/28 01:30:28;;;;;;;5.53;1.98;;;8.30;99.90;;;;;;5087024;28;20547;-77
2022/04/28 01:32:57;;;;;;;12.48;2.30;;;9.10;99.90;;;;;;5085189;28;20483;-77
2022/04/28 01:35:26;;;;;;;9.05;2.15;;;8.10;99.90;;;;;;5085632;28;20040;-77
2022/04/28 01:37:55;;;;;;;6.45;1.98;;;8.20;99.90;;;;;;5101818;28;20530;-77
2022/04/28 01:40:21;;;;;;;8.20;1.90;;;8.50;99.90;;;;;;5069374;28;20661;-76
2022/04/28 01:42:47;;;;;;;5.60;1.88;;;8.40;99.90;;;;;;5086065;28;20093;-77
2022/04/28 01:45:14;;;;;;;7.28;1.98;;;8.20;99.90;;;;;;5085673;28;20071;-77
2022/04/28 01:47:40;;;;;;;5.15;2.00;;;8.20;99.90;;;;;;5102192;28;20048;-77
2022/04/28 01:50:09;;;;;;;5.95;1.92;;;8.20;99.90;;;;;;5086436;28;20115;-77
2022/04/28 01:55:21;;;;;;;12.35;2.67;;;8.20;99.90;;;;;;5085392;28;20113;-76
2022/04/28 01:57:47;;;;;;;9.40;2.13;;;8.20;99.90;;;;;;5086946;28;20044;-77
2022/04/28 02:00:14;;;;;;;7.78;1.88;;;8.20;99.90;;;;;;5085441;28;20039;-75
2022/04/28 02:02:40;;;;;;;11.05;2.17;;;8.20;99.90;;;;;;5084917;28;20075;-76
2022/04/28 02:05:07;;;;;;;10.00;2.33;;;8.30;99.90;;;;;;5051937;28;20093;-77
2022/04/28 02:07:36;;;;;;;13.90;2.45;;;8.20;99.90;;;;;;5067848;28;20047;-76
2022/04/28 02:10:03;;;;;;;4.40;2.08;;;8.20;99.90;;;;;;5069244;28;20414;-77
2022/04/28 02:12:29;;;;;;;8.20;1.73;;;8.30;99.90;;;;;;5085583;28;20109;-76
2022/04/28 02:14:55;;;;;;;5.65;1.65;;;8.30;99.90;;;;;;5068571;28;20040;-77
2022/04/28 02:17:26;;;;;;;7.85;1.90;;;8.30;99.90;;;;;;5086417;28;20072;-77
2022/04/28 02:19:52;;;;;;;6.13;1.95;;;8.30;99.90;;;;;;5086102;28;20043;-77
2022/04/28 02:22:18;;;;;;;10.88;2.20;;;8.30;99.90;;;;;;5086622;28;20097;-78
2022/04/28 02:24:44;;;;;;;9.00;2.00;;;8.90;99.90;;;;;;5083997;28;20076;-77
2022/04/28 02:27:10;;;;;;;7.82;2.25;;;8.30;99.90;;;;;;5102091;28;20414;-78
2022/04/28 02:29:36;;;;;;;8.90;2.40;;;8.30;99.90;;;;;;5100872;28;20039;-79
2022/04/28 02:32:02;;;;;;;7.82;1.90;;;8.40;99.90;;;;;;5085786;28;20067;-78
2022/04/28 02:34:28;;;;;;;6.35;1.95;;;8.20;99.90;;;;;;5084738;28;20411;-78
2022/04/28 02:36:54;;;;;;;13.82;1.83;;;8.40;99.90;;;;;;5086023;28;20047;-77
2022/04/28 02:39:20;;;;;;;7.07;1.77;;;8.20;99.90;;;;;;5086595;28;20138;-78
2022/04/28 02:41:46;;;;;;;11.02;2.30;;;8.20;99.90;;;;;;5101070;28;20040;-78
2022/04/28 02:44:13;;;;;;;9.02;1.55;;;8.20;99.90;;;;;;5068388;28;20078;-78
2022/04/28 02:46:48;;;;;;;6.63;2.20;;;8.20;99.90;;;;;;5084625;28;20071;-78
2022/04/28 02:49:14;;;;;;;7.78;2.05;;;8.50;99.90;;;;;;5085126;28;20056;-78
2022/04/28 02:51:40;;;;;;;8.95;2.35;;;8.20;99.90;;;;;;5084370;28;20055;-78
2022/04/28 02:54:06;;;;;;;8.18;1.80;;;8.20;99.90;;;;;;5101535;28;20101;-78
2022/04/28 02:56:32;;;;;;;8.57;2.03;;;8.40;99.90;;;;;;5101642;28;20453;-77
2022/04/28 02:58:58;;;;;;;7.45;2.15;;;8.20;99.90;;;;;;5083753;28;20032;-77
2022/04/28 03:01:24;;;;;;;6.72;2.20;;;8.20;99.90;;;;;;5068533;28;20109;-78
2022/04/28 03:03:50;;;;;;;9.20;2.15;;;8.20;99.90;;;;;;5100612;28;20044;-78
2022/04/28 03:11:47;;;;;;;11.80;2.30;;;8.10;99.90;;;;;;5085549;28;20048;-77
2022/04/28 03:14:13;;;;;;;10.48;2.60;;;8.10;99.90;;;;;;5089930;28;20044;-77
2022/04/28 03:16:39;;;;;;;8.93;2.42;;;8.10;99.90;;;;;;5070758;28;20036;-78
2022/04/28 03:19:05;;;;;;;4.50;1.90;;;8.10;99.90;;;;;;5088846;28;20426;-76
2022/04/28 03:21:32;;;;;;;6.72;1.70;;;8.10;99.90;;;;;;5071372;28;20047;-78
2022/04/28 03:23:57;;;;;;;4.80;2.08;;;8.10;99.90;;;;;;5104616;28;20091;-77
2022/04/28 03:26:24;;;;;;;3.58;1.65;;;8.20;99.90;;;;;;5088288;28;20079;-77
2022/04/28 03:28:49;;;;;;;8.93;2.65;;;8.20;99.90;;;;;;5087305;28;20066;-78
2022/04/28 03:31:15;;;;;;;4.93;1.73;;;8.10;99.90;;;;;;5088680;28;20135;-77
2022/04/28 03:33:41;;;;;;;7.28;2.08;;;8.20;99.90;;;;;;5087445;28;20372;-77
2022/04/28 03:36:50;;;;;;;9.68;2.45;;;8.20;99.90;;;;;;5089832;28;20043;-77
2022/04/28 03:38:53;;;;;;;9.82;2.40;;;8.20;99.90;;;;;;5087909;28;20040;-77
2022/04/28 03:41:19;;;;;;;7.72;2.30;;;8.20;99.90;;;;;;5087395;28;20036;-77
2022/04/28 03:43:45;;;;;;;9.30;2.42;;;8.50;99.90;;;;;;5089384;28;20044;-78
2022/04/28 03:46:18;;;;;;;4.85;1.90;;;8.20;99.90;;;;;;5087936;28;20521;-77
2022/04/28 03:48:44;;;;;;;7.50;2.53;;;8.20;99.90;;;;;;5089226;28;20044;-77
2022/04/28 03:51:09;;;;;;;12.95;2.47;;;8.20;99.90;;;;;;5088376;28;20636;-77
2022/04/28 03:53:35;;;;;;;11.25;2.58;;;9.20;99.90;;;;;;5088945;28;20051;-77
2022/04/28 03:56:01;;;;;;;12.25;2.70;;;8.20;99.90;;;;;;5087524;28;20048;-77
2022/04/28 03:58:26;;;;;;;5.70;2.08;;;8.20;99.90;;;;;;5103638;28;20090;-77
2022/04/28 04:00:52;;;;;;;7.28;2.45;;;8.20;99.90;;;;;;5070582;28;20047;-77
2022/04/28 04:03:21;;;;;;;10.70;2.75;;;8.20;99.90;;;;;;5087738;28;20036;-77
2022/04/28 04:05:48;;;;;;;8.27;2.03;;;8.20;99.90;;;;;;5070807;28;20086;-78
2022/04/28 04:08:14;;;;;;;5.88;2.58;;;8.20;99.90;;;;;;5070320;28;20063;-77
2022/04/28 04:10:40;;;;;;;4.47;2.10;;;8.20;99.90;;;;;;5104261;28;20070;-77
2022/04/28 04:13:06;;;;;;;5.82;2.45;;;8.20;99.90;;;;;;5088559;28;20048;-77
2022/04/28 04:15:32;;;;;;;6.43;2.90;;;8.20;99.90;;;;;;5103660;28;20051;-77
2022/04/28 04:17:58;;;;;;;10.45;2.65;;;8.40;99.90;;;;;;5070688;28;20040;-77
2022/04/28 04:20:25;;;;;;;8.90;2.55;;;8.20;99.90;;;;;;5069846;28;20043;-77
2022/04/28 04:22:52;;;;;;;6.65;2.60;;;8.20;99.90;;;;;;5087932;28;20589;-77
2022/04/28 04:25:18;;;;;;;16.70;3.08;;;8.20;99.90;;;;;;5069347;28;20048;-78
2022/04/28 04:27:44;;;;;;;9.88;3.08;;;8.20;99.90;;;;;;5087233;28;20135;-78
2022/04/28 04:33:02;;;;;;;6.53;2.88;;;8.10;99.90;;;;;;5062397;28;20044;-78
2022/04/28 04:35:28;;;;;;;9.70;2.90;;;8.00;99.90;;;;;;5104296;28;20173;-78
2022/04/28 04:37:54;;;;;;;11.35;2.40;;;7.90;99.90;;;;;;5052558;28;20040;-78
2022/04/28 04:40:20;;;;;;;6.57;2.00;;;7.90;99.90;;;;;;5087207;28;20047;-77
2022/04/28 04:42:46;;;;;;;11.32;2.70;;;7.80;99.90;;;;;;5069620;28;20083;-76
2022/04/28 04:45:12;;;;;;;10.57;2.45;;;7.80;99.90;;;;;;5086149;28;20058;-77
2022/04/28 04:47:38;;;;;;;10.00;3.22;;;7.70;99.90;;;;;;5088163;28;20139;-77
2022/04/28 04:50:06;;;;;;;8.07;2.78;;;7.70;99.90;;;;;;5102196;28;20044;-76
2022/04/28 04:52:32;;;;;;;14.40;2.55;;;7.70;99.90;;;;;;5069858;28;20106;-76
2022/04/28 04:54:58;;;;;;;7.05;2.65;;;7.70;99.90;;;;;;5086803;28;20047;-76
2022/04/28 04:57:24;;;;;;;13.00;2.88;;;8.30;99.90;;;;;;5087669;28;20507;-77
2022/04/28 04:59:50;;;;;;;11.38;2.55;;;7.60;99.90;;;;;;5103526;28;20149;-78
2022/04/28 05:02:16;;;;;;;13.55;2.75;;;7.60;99.90;;;;;;5087396;28;20514;-78
2022/04/28 05:04:41;;;;;;;7.75;2.40;;;7.50;99.90;;;;;;5086173;28;20048;-77
2022/04/28 05:07:07;;;;;;;7.93;2.42;;;7.50;99.90;;;;;;5101810;28;20055;-76
2022/04/28 05:09:34;;;;;;;14.07;2.40;;;7.50;99.90;;;;;;5069787;28;20040;-80
2022/04/28 05:11:59;;;;;;;8.30;2.83;;;7.40;99.90;;;;;;5101753;28;20064;-78
2022/04/28 05:14:25;;;;;;;6.75;2.38;;;7.60;99.90;;;;;;5069293;28;20059;-78
2022/04/28 05:16:51;;;;;;;8.98;2.90;;;8.50;99.90;;;;;;5069175;28;20133;-77
2022/04/28 05:19:16;;;;;;;9.82;3.17;;;7.40;99.90;;;;;;5086940;28;20044;-77
2022/04/28 05:21:42;;;;;;;8.43;2.45;;;7.40;99.90;;;;;;5069188;28;20135;-77
2022/04/28 05:24:08;;;;;;;12.65;2.58;;;8.20;99.90;;;;;;5067921;28;20071;-78
2022/04/28 05:26:33;;;;;;;7.60;2.75;;;7.40;99.90;;;;;;5052598;28;20055;-77
2022/04/28 05:28:59;;;;;;;10.43;2.25;;;7.40;99.90;;;;;;5102018;28;20067;-77
2022/04/28 05:31:25;;;;;;;9.43;2.10;;;7.40;99.90;;;;;;5086620;28;20044;-76
2022/04/28 05:33:50;;;;;;;10.25;2.35;;;7.40;99.90;;;;;;5085667;28;20032;-78
2022/04/28 05:36:16;;;;;;;5.35;2.40;;;7.40;99.90;;;;;;5085798;28;20044;-77
2022/04/28 05:38:43;;;;;;;11.13;2.80;;;7.40;99.90;;;;;;5085920;28;20036;-78
2022/04/28 05:41:09;;;;;;;12.65;2.97;;;7.40;99.90;;;;;;5086197;28;20040;-77
2022/04/28 05:46:20;;;;;;;7.30;2.03;;;7.50;99.90;;;;;;5086038;28;20196;-77
2022/04/28 05:48:47;;;;;;;6.13;2.15;;;7.60;99.90;;;;;;5068888;28;20084;-78
2022/04/28 05:51:13;;;;;;;13.70;2.50;;;7.70;99.90;;;;;;5068698;28;20044;-77
2022/04/28 05:53:39;;;;;;;10.63;2.63;;;7.80;99.90;;;;;;5086515;28;20052;-77
2022/04/28 05:56:06;;;;;;;6.03;1.58;;;7.90;99.90;;;;;;5087033;28;20069;-77
2022/04/28 05:58:32;;;;;;;9.73;2.60;;;8.00;99.90;;;;;;5085766;28;20044;-77
2022/04/28 06:00:59;;;;;;;4.13;1.58;;;8.10;99.90;;;;;;5087134;28;20059;-77
2022/04/28 06:03:25;;;;;;;12.25;2.35;;;8.20;99.90;;;;;;5067685;28;20075;-77
2022/04/28 06:05:50;;;;;;;5.10;2.00;;;8.40;99.90;;;;;;5102093;28;20179;-79
2022/04/28 06:08:16;;;;;;;6.50;1.90;;;8.50;99.90;;;;;;5084657;28;20345;-78
2022/04/28 06:10:42;;;;;;;7.00;1.90;;;8.60;99.90;;;;;;5086026;28;20139;-78
2022/04/28 06:13:08;;;;;;;7.03;1.80;;;9.70;99.90;;;;;;5102163;28;20125;-79
2022/04/28 06:15:33;;;;;;;12.63;1.88;;;8.70;99.90;;;;;;5100545;28;20040;-81
2022/04/28 06:17:59;;;;;;;8.23;1.75;;;8.70;99.90;;;;;;5102775;28;20079;-79
2022/04/28 06:20:26;;;;;;;5.70;1.75;;;8.80;99.90;;;;;;5101053;28;20515;-81
2022/04/28 06:22:51;;;;;;;9.05;1.48;;;9.00;99.90;;;;;;5102294;28;20044;-80
2022/04/28 06:25:18;;;;;;;14.88;1.85;;;9.10;99.90;;;;;;5101242;28;20052;-79
2022/04/28 06:27:44;;;;;;;4.35;1.17;;;9.30;99.90;;;;;;5051616;28;20414;-80
2022/04/28 06:30:10;;;;;;;5.30;1.88;;;9.40;99.90;;;;;;5051369;28;20522;-80
2022/04/28 06:32:37;;;;;;;5.50;1.20;;;9.50;99.90;;;;;;5084727;28;20040;-80
2022/04/28 06:35:04;;;;;;;6.25;1.33;;;9.60;99.90;;;;;;5086818;28;20399;-80
2022/04/28 06:37:29;;;;;;;10.43;1.08;;;9.70;99.90;;;;;;5084016;28;20037;-80
2022/04/28 06:39:55;;;;;;;10.73;1.13;;;11.00;99.90;;;;;;5084844;28;20040;-83
2022/04/28 06:42:21;;;;;;;5.95;1.00;;;9.90;99.90;;;;;;5101115;28;20040;-81
2022/04/28 06:44:47;;;;;;;4.28;0.85;;;11.20;99.90;;;;;;5101558;28;20131;-77
2022/04/28 06:47:13;;;;;;;12.25;1.05;;;10.10;99.90;;;;;;5089002;28;20064;-78
2022/04/28 06:49:39;;;;;;;7.28;1.10;;;10.10;99.90;;;;;;5105686;28;20051;-78
2022/04/28 06:52:05;;;;;;;6.55;1.05;;;10.20;99.90;;;;;;5072790;28;20542;-78
2022/04/28 06:54:31;;;;;;;8.27;0.70;;;10.20;99.90;;;;;;5089503;28;20399;-78
2022/04/28 06:56:58;;;;;;;3.58;0.68;;;10.50;99.90;;;;;;5089378;28;20047;-78
2022/04/28 06:59:24;;;;;;;7.60;1.65;;;10.70;99.90;;;;;;5088554;28;20048;-79
2022/04/28 07:01:50;;;;;;;4.18;0.70;;;10.90;99.90;;;;;;5088955;28;20046;-78
2022/04/28 07:04:16;;;;;;;3.35;0.75;;;10.90;99.90;;;;;;5090942;28;20509;-79
2022/04/28 07:06:42;;;;;;;7.38;1.02;;;11.30;99.90;;;;;;5088641;28;20035;-79
2022/04/28 07:09:07;;;;;;;10.38;0.93;;;11.20;99.90;;;;;;5090833;28;20040;-79
2022/04/28 07:11:33;;;;;;;5.07;0.95;;;11.40;99.90;;;;;;5089178;28;20055;-79
2022/04/28 07:13:59;;;;;;;6.28;0.85;;;11.50;99.90;;;;;;5090134;28;20085;-79
2022/04/28 07:16:25;;;;;;;3.58;0.70;;;11.60;99.90;;;;;;5071379;28;20044;-79
2022/04/28 07:18:51;;;;;;;7.90;1.35;;;11.70;99.90;;;;;;5089879;28;20036;-79
2022/04/28 07:21:17;;;;;;;3.40;0.60;;;11.90;99.90;;;;;;5071598;28;20043;-79
2022/04/28 07:23:42;;;;;;;5.45;1.10;;;11.90;99.90;;;;;;5070568;28;20052;-78
2022/04/28 07:26:08;;;;;;;4.38;0.80;;;11.90;99.90;;;;;;5088572;28;20421;-79
2022/04/28 07:28:34;;;;;;;6.65;1.40;;;12.00;99.90;;;;;;5088656;28;20048;-79
2022/04/28 07:30:59;;;;;;;9.43;1.15;;;13.10;99.90;;;;;;5106017;28;20376;-79
2022/04/28 07:33:28;;;;;;;7.45;1.00;;;12.00;99.90;;;;;;5070481;28;20537;-79
2022/04/28 07:35:54;;;;;;;8.50;1.23;;;12.10;99.90;;;;;;5104785;28;20479;-79
2022/04/28 07:38:21;;;;;;;8.07;1.20;;;12.10;99.90;;;;;;5104655;28;20063;-79
2022/04/28 07:40:48;;;;;;;7.47;1.23;;;12.20;99.90;;;;;;5054056;28;20032;-79
2022/04/28 07:43:14;;;;;;;4.38;1.10;;;12.10;99.90;;;;;;5105549;28;20051;-79
2022/04/28 07:45:40;;;;;;;5.25;1.20;;;12.20;99.90;;;;;;5069609;28;20051;-78
2022/04/28 07:48:06;;;;;;;10.63;1.10;;;12.30;99.90;;;;;;5071607;28;20052;-79
2022/04/28 07:50:32;;;;;;;6.25;0.95;;;12.40;99.90;;;;;;5104065;28;20503;-79
2022/04/28 07:52:58;;;;;;;9.10;1.33;;;12.30;99.90;;;;;;5054374;28;20028;-80
2022/04/28 07:55:24;;;;;;;6.88;1.00;;;12.30;99.90;;;;;;5087541;28;20391;-79
2022/04/28 07:57:49;;;;;;;6.80;0.85;;;12.30;99.90;;;;;;5086138;28;20050;-79
2022/04/28 08:00:15;;;;;;;5.47;0.93;;;12.20;99.90;;;;;;5089297;28;20040;-79
2022/04/28 08:02:41;;;;;;;4.55;0.98;;;12.10;99.90;;;;;;5103361;28;20102;-79
2022/04/28 08:05:08;;;;;;;7.18;0.90;;;12.20;99.90;;;;;;5087762;28;20056;-79
2022/04/28 08:07:34;;;;;;;7.43;0.90;;;12.20;99.90;;;;;;5088143;28;20432;-79
2022/04/28 08:10:00;;;;;;;5.35;1.08;;;12.30;99.90;;;;;;5070350;28;20055;-79
2022/04/28 08:12:26;;;;;;;5.75;0.88;;;12.20;99.90;;;;;;5088723;28;20055;-78
2022/04/28 08:14:52;;;;;;;5.13;1.67;;;12.20;99.90;;;;;;5086737;28;20403;-79
2022/04/28 08:17:18;;;;;;;3.25;0.85;;;12.20;99.90;;;;;;5088951;28;20063;-79
2022/04/28 08:19:43;;;;;;;10.90;1.00;;;12.30;99.90;;;;;;5085895;28;20047;-79
2022/04/28 08:22:09;;;;;;;7.22;1.10;;;12.30;99.90;;;;;;5070889;28;20029;-79
2022/04/28 08:24:35;;;;;;;4.75;0.98;;;12.30;99.90;;;;;;5103269;28;20051;-80
2022/04/28 08:27:01;;;;;;;7.13;1.30;;;12.30;99.90;;;;;;5070244;28;20122;-79
2022/04/28 08:29:27;;;;;;;7.13;1.00;;;12.40;99.90;;;;;;5086884;28;20044;-79
2022/04/28 08:31:53;;;;;;;5.25;1.20;;;12.40;99.90;;;;;;5055887;28;20054;-79
2022/04/28 08:34:19;;;;;;;7.35;1.52;;;12.40;99.90;;;;;;5090055;28;20078;-80
2022/04/28 08:36:45;;;;;;;5.10;1.13;;;12.30;99.90;;;;;;5087320;28;20077;-79
2022/04/28 08:39:11;;;;;;;7.75;1.98;;;12.20;99.90;;;;;;5089173;28;20044;-79
2022/04/28 08:41:44;;;;;;;11.95;2.28;;;12.20;99.90;;;;;;5085871;28;20055;-78
2022/04/28 08:44:16;;;;;;;5.28;1.70;;;12.30;99.90;;;;;;5103467;28;20052;-79
2022/04/28 08:46:51;;;;;;;11.43;1.92;;;12.40;99.90;;;;;;5087600;28;20105;-78
2022/04/28 08:49:29;;;;;;;10.95;1.73;;;12.50;99.90;;;;;;5087510;28;20043;-79
2022/04/28 08:51:57;;;;;;;8.60;2.00;;;12.60;99.90;;;;;;5086864;28;20056;-79
2022/04/28 08:54:25;;;;;;;7.95;1.50;;;12.50;99.90;;;;;;5087079;28;20067;-80
2022/04/28 08:56:56;;;;;;;6.18;1.55;;;12.50;99.90;;;;;;5088149;28;20071;-80
2022/04/28 08:59:22;;;;;;;4.90;1.48;;;12.50;99.90;;;;;;5086196;28;20043;-78
2022/04/28 09:01:50;;;;;;;8.57;1.23;;;12.50;99.90;;;;;;5087180;28;20119;-79
2022/04/28 09:04:17;;;;;;;5.63;1.55;;;12.40;99.90;;;;;;5103447;28;20040;-79
2022/04/28 09:06:44;;;;;;;13.63;1.67;;;12.40;99.90;;;;;;5102108;28;20052;-79
2022/04/28 09:09:15;;;;;;;6.25;1.52;;;12.50;99.90;;;;;;5103082;28;20052;-79
2022/04/28 09:11:42;;;;;;;6.55;1.38;;;12.60;99.90;;;;;;5068712;28;20087;-79
2022/04/28 09:14:17;;;;;;;8.23;1.52;;;12.60;99.90;;;;;;5085807;28;20036;-79
2022/04/28 09:16:57;;;;;;;6.43;1.52;;;12.60;99.90;;;;;;5087406;28;20426;-80
2022/04/28 09:19:24;;;;;;;7.30;1.50;;;12.60;99.90;;;;;;5086536;28;20139;-78
2022/04/28 09:21:54;;;;;;;5.95;1.08;;;12.50;99.90;;;;;;5103687;28;20048;-78
2022/04/28 09:24:23;;;;;;;3.30;1.33;;;12.60;99.90;;;;;;5052099;28;20279;-78
2022/04/28 09:26:50;;;;;;;10.05;1.60;;;12.70;99.90;;;;;;5052198;28;20407;-78
2022/04/28 09:29:18;;;;;;;6.28;1.00;;;12.70;99.90;;;;;;5102729;28;20047;-78
2022/04/28 09:31:46;;;;;;;6.68;1.02;;;12.60;99.90;;;;;;5051771;28;20044;-79
2022/04/28 09:34:14;;;;;;;10.77;1.55;;;12.60;99.90;;;;;;5052938;28;20044;-79
2022/04/28 09:36:41;;;;;;;9.80;1.83;;;12.60;99.90;;;;;;5068018;28;20044;-80
2022/04/28 09:39:11;;;;;;;4.70;1.95;;;12.60;99.90;;;;;;5087534;28;20044;-80
2022/04/28 09:44:23;;;;;;;11.75;1.75;;;12.70;99.90;;;;;;5084859;28;20040;-79
2022/04/28 09:46:50;;;;;;;11.98;2.08;;;12.70;99.90;;;;;;5069086;28;20048;-79
2022/04/28 09:49:18;;;;;;;8.65;1.80;;;12.70;99.90;;;;;;5067285;28;20052;-79
2022/04/28 09:51:45;;;;;;;11.68;1.77;;;12.70;99.90;;;;;;5086991;28;20048;-79
2022/04/28 09:54:15;;;;;;;8.75;1.45;;;12.60;99.90;;;;;;5051577;28;20483;-79
2022/04/28 09:56:42;;;;;;;4.18;1.23;;;12.70;99.90;;;;;;5087241;28;20079;-79
2022/04/28 09:59:11;;;;;;;4.65;0.95;;;12.80;99.90;;;;;;5068455;28;20032;-78
2022/04/28 10:01:38;;;;;;;10.65;1.08;;;13.00;99.90;;;;;;5085115;28;20409;-78
2022/04/28 10:04:08;;;;;;;12.50;1.58;;;13.00;99.90;;;;;;5087972;28;20036;-77
2022/04/28 10:06:35;;;;;;;9.30;1.45;;;13.00;99.90;;;;;;5089943;28;20073;-77
2022/04/28 10:09:06;;;;;;;6.18;1.13;;;13.10;99.90;;;;;;5072590;28;20104;-78
2022/04/28 10:11:32;;;;;;;6.53;1.35;;;13.00;99.90;;;;;;5086139;28;20044;-78
2022/04/28 10:13:59;;;;;;;7.85;1.30;;;13.00;99.90;;;;;;5086092;28;20123;-78
2022/04/28 10:16:25;;;;;;;4.18;1.00;;;12.90;99.90;;;;;;5084906;28;20052;-79
2022/04/28 10:18:58;;;;;;;4.30;1.52;;;13.00;99.90;;;;;;5083976;28;20051;-79
2022/04/28 10:21:32;;;;;;;7.20;1.45;;;13.00;99.90;;;;;;5084701;28;20380;-78
2022/04/28 10:33:03;;;;;;;6.15;0.98;;;13.30;98.50;;;;;;5083712;28;19920;-78
2022/04/28 10:35:33;;;;;;;14.52;1.17;;;13.50;98.50;;;;;;5026151;28;20068;-77
2022/04/28 10:38:09;;;;;;;6.63;1.27;;;13.60;98.90;;;;;;5077702;28;20059;-78
2022/04/28 10:41:06;;;;;;;3.47;0.55;;;13.60;98.30;;;;;;5066800;28;20618;-77
2022/04/28 10:43:32;;;;;;;9.68;1.40;;;13.60;98.30;;;;;;5072673;28;20048;-78
2022/04/28 10:46:28;;;;;;;5.75;0.93;;;13.50;98.50;;;;;;5084273;28;20052;-78
2022/04/28 10:49:05;;;;;;;3.22;0.85;;;13.50;97.50;;;;;;5083338;28;20091;-78
2022/04/28 10:51:33;;;;;;;11.43;1.35;;;13.40;98.40;;;;;;5067987;28;20048;-78
2022/04/28 10:54:07;;;;;;;8.00;1.70;;;13.40;98.70;;;;;;5050329;28;20036;-80
2022/04/28 10:56:42;;;;;;;5.88;0.98;;;13.40;98.30;;;;;;5084809;28;20048;-78
2022/04/28 10:59:29;;;;;;;6.88;1.50;;;13.50;98.00;;;;;;5084682;28;20048;-78
2022/04/28 11:01:56;;;;;;;6.93;1.17;;;13.70;97.60;;;;;;5084881;28;20051;-78
2022/04/28 11:04:23;;;;;;;3.95;0.90;;;13.80;97.80;;;;;;5085094;28;20032;-79
2022/04/28 11:06:58;;;;;;;11.90;1.33;;;14.00;97.60;;;;;;5083562;28;20044;-79
2022/04/28 11:09:55;;;;;;;5.50;1.23;;;14.00;96.10;;;;;;5084725;28;20113;-77
2022/04/28 11:12:22;;;;;;;8.45;1.38;;;14.10;96.80;;;;;;5070573;28;20052;-78
2022/04/28 11:14:50;;;;;;;8.82;1.30;;;14.10;97.30;;;;;;5085342;28;20750;-79
2022/04/28 11:17:18;;;;;;;5.90;1.58;;;14.20;97.40;;;;;;5084847;28;20093;-79
2022/04/28 11:19:45;;;;;;;4.90;1.35;;;15.10;96.60;;;;;;5083539;28;20406;-79
2022/04/28 11:22:11;;;;;;;5.70;1.60;;;14.20;95.90;;;;;;5085819;28;20044;-78
2022/04/28 11:24:41;;;;;;;10.38;1.38;;;14.20;96.00;;;;;;5085772;28;20055;-79
2022/04/28 11:27:07;;;;;;;12.48;1.23;;;14.20;95.90;;;;;;5084773;28;20066;-78
2022/04/28 11:29:36;;;;;;;12.93;1.77;;;14.20;96.00;;;;;;5085173;28;20051;-78
2022/04/28 11:32:02;;;;;;;6.80;1.30;;;14.20;95.70;;;;;;5085943;28;20040;-78
2022/04/28 11:34:30;;;;;;;4.97;1.23;;;14.10;95.80;;;;;;5089581;28;20541;-78
2022/04/28 11:36:55;;;;;;;7.72;0.85;;;14.00;96.10;;;;;;5088722;28;20093;-78
2022/04/28 11:39:24;;;;;;;6.32;0.80;;;14.00;95.80;;;;;;5071936;28;20040;-79
2022/04/28 11:41:52;;;;;;;8.05;1.25;;;13.90;94.60;;;;;;5089251;28;20051;-78
2022/04/28 11:44:19;;;;;;;1.88;0.63;;;13.90;95.40;;;;;;5087149;28;20044;-79
2022/04/28 11:46:44;;;;;;;4.20;0.70;;;14.00;96.00;;;;;;5087920;28;20313;-79
2022/04/28 11:49:11;;;;;;;7.32;1.20;;;14.10;95.60;;;;;;5086875;28;20693;-77
2022/04/28 11:51:37;;;;;;;5.38;1.05;;;14.10;95.00;;;;;;5071009;28;20043;-78
2022/04/28 11:54:04;;;;;;;6.57;1.05;;;14.10;94.70;;;;;;5069912;28;20055;-78
2022/04/28 11:56:35;;;;;;;6.50;1.30;;;14.00;94.40;;;;;;5087505;28;20047;-78
2022/04/28 11:59:04;;;;;;;4.88;0.90;;;13.90;95.10;;;;;;5089008;28;20040;-78
2022/04/28 12:01:32;;;;;;;4.18;1.25;;;13.80;95.20;;;;;;5088006;28;20437;-77
2022/04/28 12:03:59;;;;;;;4.97;1.20;;;13.80;95.40;;;;;;5088191;28;20403;-78
2022/04/28 12:06:25;;;;;;;7.32;1.08;;;13.80;95.20;;;;;;5087493;28;20071;-79
2022/04/28 12:08:53;;;;;;;4.57;0.73;;;14.00;95.10;;;;;;5070907;28;20399;-76
2022/04/28 12:14:24;;;;;;;6.80;0.95;;;14.00;94.20;;;;;;5064772;28;20075;-79
2022/04/28 12:19:56;;;;;;;5.22;1.20;;;14.30;93.40;;;;;;5086603;28;20463;-78
2022/04/28 12:22:30;;;;;;;5.15;1.30;;;14.20;92.90;;;;;;5086822;28;20166;-78
2022/04/28 12:25:05;;;;;;;3.30;1.00;;;14.10;94.20;;;;;;5071156;28;20128;-77
2022/04/28 12:27:44;;;;;;;7.60;0.70;;;14.30;94.30;;;;;;5087071;28;20668;-78
2022/04/28 12:30:13;;;;;;;9.50;0.93;;;14.10;93.50;;;;;;5087706;28;20397;-77
2022/04/28 12:32:59;;;;;;;2.78;0.73;;;14.70;94.10;;;;;;5086433;28;20056;-77
2022/04/28 12:35:30;;;;;;;8.23;1.45;;;14.10;93.40;;;;;;5087572;28;20054;-78
2022/04/28 12:38:02;;;;;;;3.95;0.77;;;14.40;93.90;;;;;;5088565;28;20043;-77
2022/04/28 12:40:42;;;;;;;4.47;1.60;;;14.70;92.90;;;;;;5086105;28;20097;-78
2022/04/28 12:43:09;;;;;;;6.35;1.20;;;14.60;90.80;;;;;;5088033;28;20043;-78
2022/04/28 12:45:36;;;;;;;2.33;0.88;;;14.50;92.20;;;;;;5086562;28;20040;-78
2022/04/28 12:48:01;;;;;;;11.85;1.60;;;14.20;92.80;;;;;;5086274;28;20132;-78
2022/04/28 12:50:28;;;;;;;8.15;1.05;;;14.10;92.90;;;;;;5071082;28;20082;-78
2022/04/28 12:52:54;;;;;;;6.25;0.82;;;14.20;93.30;;;;;;5086133;28;20040;-78
2022/04/28 12:55:21;;;;;;;7.13;0.90;;;14.40;93.20;;;;;;5087290;28;20102;-78
2022/04/28 12:57:49;;;;;;;7.32;1.15;;;14.60;92.60;;;;;;5087875;28;20078;-78
2022/04/28 13:00:18;;;;;;;4.93;0.73;;;14.60;91.50;;;;;;5088323;28;20036;-78
2022/04/28 13:02:51;;;;;;;6.82;0.82;;;14.50;91.60;;;;;;5087688;28;20093;-79
2022/04/28 13:05:19;;;;;;;4.20;0.80;;;14.30;91.80;;;;;;5088412;28;20059;-77
2022/04/28 13:07:45;;;;;;;3.88;1.00;;;14.30;92.80;;;;;;5090378;28;20036;-79
2022/04/28 13:10:13;;;;;;;4.72;0.80;;;14.50;93.00;;;;;;5086941;28;20081;-78
2022/04/28 13:12:39;;;;;;;8.60;1.30;;;14.50;92.10;;;;;;5087094;28;20044;-78
2022/04/28 13:15:06;;;;;;;5.05;0.70;;;14.60;92.20;;;;;;5087265;28;20115;-77
2022/04/28 13:17:31;;;;;;;4.43;0.80;;;14.80;92.10;;;;;;5087997;28;20039;-79
2022/04/28 13:19:57;;;;;;;3.40;0.70;;;14.90;91.20;;;;;;5086053;28;20558;-79
2022/04/28 13:22:24;;;;;;;2.20;0.65;;;15.10;90.70;;;;;;5085364;28;20097;-78
2022/04/28 13:24:49;;;;;;;4.75;0.95;;;15.30;90.40;;;;;;5086810;28;20100;-78
2022/04/28 13:27:15;;;;;;;3.55;1.10;;;15.60;89.80;;;;;;5086589;28;20437;-78